createdAt,value
2022-11-09T00:01:46.279Z,91.20
2022-11-09T00:04:13.928Z,91.40
2022-11-09T00:06:41.031Z,91.10
2022-11-09T00:09:09.843Z,91.10
2022-11-09T00:11:38.573Z,91.10
2022-11-09T00:14:18.339Z,91.10
2022-11-09T00:16:45.461Z,91.10
2022-11-09T00:19:15.424Z,91.10
2022-11-09T00:21:42.568Z,91.10
2022-11-09T00:24:10.751Z,91.00
2022-11-09T00:26:37.862Z,91.00
2022-11-09T00:29:05.202Z,91.10
2022-11-09T00:31:35.621Z,91.10
2022-11-09T00:34:05.482Z,91.20
2022-11-09T00:36:34.441Z,91.10
2022-11-09T00:39:01.743Z,91.10
2022-11-09T00:41:29.012Z,91.10
2022-11-09T00:43:56.293Z,91.10
2022-11-09T00:46:24.307Z,91.10
2022-11-09T00:48:51.555Z,91.00
2022-11-09T00:51:19.171Z,91.00
2022-11-09T00:53:48.480Z,91.00
2022-11-09T00:56:15.872Z,91.00
2022-11-09T00:58:44.956Z,91.00
2022-11-09T01:01:35.520Z,91.10
2022-11-09T01:04:05.147Z,91.10
2022-11-09T01:06:37.776Z,91.10
2022-11-09T01:09:10.346Z,91.10
2022-11-09T01:11:38.654Z,91.10
2022-11-09T01:14:06.027Z,91.10
2022-11-09T01:16:37.203Z,91.10
2022-11-09T01:19:05.326Z,91.10
2022-11-09T01:21:33.401Z,91.10
2022-11-09T01:24:01.873Z,91.10
2022-11-09T01:26:29.419Z,91.10
2022-11-09T01:29:00.195Z,91.10
2022-11-09T01:31:28.000Z,91.20
2022-11-09T01:33:55.338Z,91.20
2022-11-09T01:36:26.239Z,91.40
2022-11-09T01:38:53.730Z,91.40
2022-11-09T01:41:27.288Z,91.50
2022-11-09T01:44:08.562Z,91.50
2022-11-09T01:47:03.659Z,91.50
2022-11-09T01:49:41.347Z,91.50
2022-11-09T01:52:13.486Z,91.60
2022-11-09T01:54:57.808Z,92.00
2022-11-09T01:57:32.954Z,91.80
2022-11-09T02:00:07.645Z,91.80
2022-11-09T02:02:52.639Z,91.90
2022-11-09T02:05:29.286Z,91.90
2022-11-09T02:08:04.941Z,91.90
2022-11-09T02:10:55.614Z,92.00
2022-11-09T02:13:26.089Z,92.10
2022-11-09T02:16:04.511Z,92.10
2022-11-09T02:18:33.082Z,92.20
2022-11-09T02:21:07.776Z,92.20
2022-11-09T02:23:35.077Z,92.20
2022-11-09T02:26:11.216Z,92.30
2022-11-09T02:28:43.732Z,92.30
2022-11-09T02:31:15.073Z,92.30
2022-11-09T02:33:54.701Z,92.30
2022-11-09T02:36:25.537Z,92.30
2022-11-09T02:38:54.736Z,92.30
2022-11-09T02:41:24.356Z,92.30
2022-11-09T02:43:53.829Z,92.30
2022-11-09T02:46:31.368Z,92.30
2022-11-09T02:48:59.340Z,92.40
2022-11-09T02:51:29.155Z,92.40
2022-11-09T02:53:56.766Z,92.40
2022-11-09T02:56:24.621Z,92.40
2022-11-09T02:59:01.449Z,92.40
2022-11-09T03:01:32.555Z,92.40
2022-11-09T03:03:59.844Z,92.40
2022-11-09T03:06:34.642Z,92.40
2022-11-09T03:09:11.703Z,92.50
2022-11-09T03:11:41.409Z,92.40
2022-11-09T03:14:11.166Z,92.40
2022-11-09T03:16:44.260Z,92.40
2022-11-09T03:19:15.961Z,92.40
2022-11-09T03:21:44.407Z,92.40
2022-11-09T03:24:14.793Z,92.50
2022-11-09T03:26:42.882Z,92.50
2022-11-09T03:29:10.890Z,92.50
2022-11-09T03:31:47.479Z,92.50
2022-11-09T03:34:15.174Z,92.50
2022-11-09T03:36:42.368Z,92.50
2022-11-09T03:39:09.519Z,92.50
2022-11-09T03:41:37.540Z,92.40
2022-11-09T03:44:06.142Z,92.40
2022-11-09T03:46:33.454Z,92.50
2022-11-09T03:49:03.494Z,92.50
2022-11-09T03:51:30.703Z,92.50
2022-11-09T03:54:02.892Z,92.50
2022-11-09T03:56:30.152Z,92.50
2022-11-09T03:59:01.634Z,92.60
2022-11-09T04:01:32.514Z,92.60
2022-11-09T04:03:59.836Z,92.60
2022-11-09T04:06:27.139Z,92.60
2022-11-09T04:08:54.440Z,92.70
2022-11-09T04:11:21.585Z,92.70
2022-11-09T04:13:48.882Z,92.70
2022-11-09T04:16:16.096Z,92.70
2022-11-09T04:18:46.217Z,92.70
2022-11-09T04:21:13.467Z,92.70
2022-11-09T04:23:40.784Z,92.70
2022-11-09T04:26:07.994Z,92.80
2022-11-09T04:28:37.996Z,92.80
2022-11-09T04:31:05.436Z,92.80
2022-11-09T04:33:32.829Z,92.90
2022-11-09T04:36:09.054Z,92.90
2022-11-09T04:38:36.650Z,92.90
2022-11-09T04:41:04.819Z,92.90
2022-11-09T04:43:32.608Z,92.90
2022-11-09T04:46:10.069Z,92.80
2022-11-09T04:48:38.473Z,92.80
2022-11-09T04:51:07.936Z,92.90
2022-11-09T04:53:36.300Z,92.80
2022-11-09T04:56:04.953Z,92.90
2022-11-09T04:58:32.855Z,92.90
2022-11-09T05:01:09.024Z,92.90
2022-11-09T05:03:36.295Z,92.90
2022-11-09T05:06:26.920Z,92.80
2022-11-09T05:08:55.249Z,92.90
2022-11-09T05:11:22.805Z,92.90
2022-11-09T05:13:51.819Z,92.90
2022-11-09T05:16:19.866Z,92.90
2022-11-09T05:18:47.708Z,92.90
2022-11-09T05:21:18.292Z,92.80
2022-11-09T05:24:00.972Z,92.80
2022-11-09T05:26:37.245Z,92.70
2022-11-09T05:29:07.388Z,93.00
2022-11-09T05:31:36.555Z,92.70
2022-11-09T05:34:05.319Z,92.80
2022-11-09T05:36:33.901Z,92.80
2022-11-09T05:39:03.417Z,92.90
2022-11-09T05:41:30.848Z,93.00
2022-11-09T05:44:08.054Z,92.90
2022-11-09T05:46:35.330Z,92.90
2022-11-09T05:49:04.076Z,92.90
2022-11-09T05:51:33.723Z,93.00
2022-11-09T05:54:09.087Z,93.10
2022-11-09T05:56:39.528Z,93.10
2022-11-09T05:59:06.945Z,93.10
2022-11-09T06:01:34.074Z,93.20
2022-11-09T06:04:02.458Z,93.20
2022-11-09T06:06:30.105Z,93.20
2022-11-09T06:08:57.572Z,93.30
2022-11-09T06:11:24.769Z,93.30
2022-11-09T06:13:52.747Z,93.30
2022-11-09T06:16:22.291Z,93.40
2022-11-09T06:18:52.522Z,93.40
2022-11-09T06:21:19.693Z,93.40
2022-11-09T06:23:49.548Z,93.50
2022-11-09T06:26:16.752Z,93.50
2022-11-09T06:28:44.062Z,93.50
2022-11-09T06:31:14.498Z,93.60
2022-11-09T06:33:43.568Z,93.60
2022-11-09T06:36:11.702Z,93.60
2022-11-09T06:38:39.237Z,93.60
2022-11-09T06:41:07.037Z,93.60
2022-11-09T06:43:37.250Z,93.50
2022-11-09T06:46:05.290Z,93.60
2022-11-09T06:48:35.408Z,93.60
2022-11-09T06:51:05.507Z,93.60
2022-11-09T06:53:38.054Z,93.50
2022-11-09T06:56:05.901Z,93.50
2022-11-09T06:58:34.340Z,93.50
2022-11-09T07:01:08.093Z,93.60
2022-11-09T07:03:40.798Z,93.60
2022-11-09T07:06:13.896Z,93.60
2022-11-09T07:08:45.985Z,93.60
2022-11-09T07:11:19.791Z,93.70
2022-11-09T07:13:52.245Z,93.60
2022-11-09T07:16:22.167Z,93.70
2022-11-09T07:18:51.692Z,93.70
2022-11-09T07:21:18.907Z,93.70
2022-11-09T07:23:58.932Z,93.70
2022-11-09T07:26:37.187Z,93.70
2022-11-09T07:29:05.635Z,93.70
2022-11-09T07:31:37.737Z,93.70
2022-11-09T07:34:12.480Z,93.70
2022-11-09T07:40:33.169Z,93.70
2022-11-09T07:43:07.541Z,93.60
2022-11-09T07:45:36.146Z,93.60
2022-11-09T07:48:06.115Z,93.60
2022-11-09T07:50:34.602Z,93.60
2022-11-09T07:53:03.069Z,93.60
2022-11-09T07:55:30.583Z,93.60
2022-11-09T07:57:59.509Z,93.60
2022-11-09T08:00:28.585Z,93.80
2022-11-09T08:03:00.608Z,93.60
2022-11-09T08:06:07.350Z,93.60
2022-11-09T08:08:37.654Z,93.60
2022-11-09T08:11:13.534Z,93.50
2022-11-09T08:13:40.808Z,93.50
2022-11-09T08:16:10.553Z,93.60
2022-11-09T08:18:48.346Z,93.60
2022-11-09T08:21:26.267Z,93.60
2022-11-09T08:24:01.899Z,93.60
2022-11-09T08:26:49.871Z,93.50
2022-11-09T08:29:38.653Z,93.50
2022-11-09T08:32:14.953Z,93.50
2022-11-09T08:34:50.144Z,93.50
2022-11-09T08:37:23.761Z,93.40
2022-11-09T08:39:51.014Z,93.40
2022-11-09T08:42:18.270Z,93.40
2022-11-09T08:44:48.419Z,93.30
2022-11-09T08:47:23.249Z,93.40
2022-11-09T08:49:50.976Z,93.30
2022-11-09T08:52:21.319Z,93.30
2022-11-09T08:54:48.678Z,93.30
2022-11-09T08:57:32.167Z,93.20
2022-11-09T09:00:03.706Z,93.20
2022-11-09T09:02:33.871Z,93.10
2022-11-09T09:05:03.894Z,93.10
2022-11-09T09:07:50.068Z,93.00
2022-11-09T09:10:18.173Z,92.90
2022-11-09T09:12:45.627Z,92.80
2022-11-09T09:15:26.739Z,92.70
2022-11-09T09:18:05.588Z,92.50
2022-11-09T09:20:36.609Z,92.30
2022-11-09T09:23:04.570Z,92.20
2022-11-09T09:25:37.477Z,91.90
2022-11-09T09:28:04.876Z,91.90
2022-11-09T09:30:32.176Z,91.70
2022-11-09T09:33:00.653Z,91.50
2022-11-09T09:35:29.024Z,91.50
2022-11-09T09:37:58.916Z,91.50
2022-11-09T09:41:02.881Z,91.50
2022-11-09T09:43:47.120Z,91.50
2022-11-09T09:46:37.274Z,91.60
2022-11-09T09:49:15.052Z,91.60
2022-11-09T09:52:00.365Z,91.60
2022-11-09T09:54:34.238Z,91.60
2022-11-09T09:57:04.051Z,91.50
2022-11-09T09:59:42.008Z,91.40
2022-11-09T10:02:24.190Z,91.40
2022-11-09T10:05:06.206Z,91.30
2022-11-09T10:08:01.041Z,91.30
2022-11-09T10:11:11.517Z,91.10
2022-11-09T10:13:56.721Z,91.10
2022-11-09T10:17:02.585Z,91.10
2022-11-09T10:19:49.395Z,90.90
2022-11-09T10:22:22.787Z,90.80
2022-11-09T10:25:21.210Z,90.70
2022-11-09T10:28:04.151Z,90.70
2022-11-09T10:30:33.258Z,90.60
2022-11-09T10:33:15.093Z,90.70
2022-11-09T10:36:05.269Z,90.60
2022-11-09T10:38:51.259Z,90.40
2022-11-09T10:41:42.738Z,90.40
2022-11-09T10:44:28.201Z,90.00
2022-11-09T10:47:19.649Z,89.80
2022-11-09T10:50:16.618Z,89.70
2022-11-09T10:53:26.831Z,89.90
2022-11-09T10:56:33.004Z,88.80
2022-11-09T11:02:53.467Z,88.00
2022-11-09T11:05:40.012Z,86.70
2022-11-09T11:08:34.200Z,87.20
2022-11-09T11:11:35.668Z,87.30
2022-11-09T11:14:33.206Z,87.40
2022-11-09T11:17:25.296Z,87.40
2022-11-09T11:20:43.747Z,86.30
2022-11-09T11:23:30.928Z,87.30
2022-11-09T11:26:48.555Z,87.10
2022-11-09T11:30:00.819Z,87.20
2022-11-09T11:32:50.976Z,87.20
2022-11-09T11:35:53.097Z,87.30
2022-11-09T11:38:49.661Z,87.20
2022-11-09T11:42:03.558Z,87.20
2022-11-09T11:45:18.617Z,86.60
2022-11-09T11:48:13.417Z,86.40
2022-11-09T11:51:26.546Z,86.30
2022-11-09T11:54:56.879Z,86.00
2022-11-09T11:57:58.027Z,86.10
2022-11-09T12:01:10.692Z,86.30
2022-11-09T12:04:47.860Z,86.00
2022-11-09T12:08:04.381Z,85.80
2022-11-09T12:11:31.005Z,85.90
2022-11-09T12:14:49.141Z,86.00
2022-11-09T12:17:57.447Z,85.60
2022-11-09T12:21:14.428Z,85.30
2022-11-09T12:24:29.398Z,85.20
2022-11-09T12:27:36.871Z,85.00
2022-11-09T12:30:48.676Z,85.00
2022-11-09T12:34:19.161Z,84.70
2022-11-09T12:37:41.311Z,84.80
2022-11-09T12:40:55.393Z,84.60
2022-11-09T12:44:23.380Z,84.50
2022-11-09T12:47:54.430Z,83.50
2022-11-09T12:50:51.779Z,82.70
2022-11-09T12:53:58.410Z,83.40
2022-11-09T12:57:06.058Z,83.00
2022-11-09T12:59:59.410Z,83.60
2022-11-09T13:03:02.529Z,83.30
2022-11-09T13:05:49.692Z,83.50
2022-11-09T13:08:35.539Z,83.70
2022-11-09T13:11:22.524Z,84.60
2022-11-09T13:14:24.519Z,83.90
2022-11-09T13:17:34.908Z,83.90
2022-11-09T13:21:03.593Z,83.90
2022-11-09T13:24:02.918Z,83.80
2022-11-09T13:26:51.925Z,82.70
2022-11-09T13:29:40.833Z,82.30
2022-11-09T13:32:33.777Z,83.20
2022-11-09T13:39:38.176Z,82.40
2022-11-09T13:43:28.851Z,81.70
2022-11-09T13:46:29.734Z,80.70
2022-11-09T13:49:35.842Z,80.70
2022-11-09T13:56:37.368Z,79.90
2022-11-09T13:59:33.808Z,80.00
2022-11-09T14:02:22.574Z,79.70
2022-11-09T14:05:45.559Z,79.10
2022-11-09T14:09:10.271Z,79.30
2022-11-09T14:12:32.357Z,79.90
2022-11-09T14:15:42.564Z,78.70
2022-11-09T14:19:14.677Z,79.30
2022-11-09T14:22:00.281Z,79.80
2022-11-09T14:24:50.573Z,80.40
2022-11-09T14:30:45.465Z,80.80
2022-11-09T14:33:34.983Z,80.30
2022-11-09T14:36:20.598Z,80.40
2022-11-09T14:39:17.249Z,80.70
2022-11-09T14:42:06.565Z,80.20
2022-11-09T14:44:52.434Z,80.60
2022-11-09T14:47:39.676Z,80.40
2022-11-09T14:50:37.043Z,80.60
2022-11-09T14:53:28.589Z,80.60
2022-11-09T14:56:19.582Z,80.80
2022-11-09T14:59:07.290Z,81.00
2022-11-09T15:02:00.666Z,81.10
2022-11-09T15:05:07.557Z,81.40
2022-11-09T15:11:52.004Z,81.90
2022-11-09T15:15:15.048Z,81.90
2022-11-09T15:18:35.346Z,82.00
2022-11-09T15:21:27.658Z,82.20
2022-11-09T15:24:15.036Z,82.40
2022-11-09T15:27:00.617Z,82.60
2022-11-09T15:29:46.239Z,82.90
2022-11-09T15:32:38.219Z,82.80
2022-11-09T15:35:25.308Z,82.90
2022-11-09T15:38:36.854Z,82.70
2022-11-09T15:41:24.403Z,82.80
2022-11-09T15:44:12.875Z,82.70
2022-11-09T15:46:58.892Z,82.90
2022-11-09T15:49:49.542Z,83.00
2022-11-09T15:55:42.941Z,83.00
2022-11-09T15:59:31.996Z,83.20
2022-11-09T16:02:26.380Z,82.70
2022-11-09T16:05:12.968Z,82.30
2022-11-09T16:08:03.920Z,82.70
2022-11-09T16:10:49.692Z,82.90
2022-11-09T16:13:34.908Z,83.20
2022-11-09T16:16:39.009Z,83.40
2022-11-09T16:19:26.718Z,83.60
2022-11-09T16:22:12.663Z,83.60
2022-11-09T16:24:58.584Z,83.60
2022-11-09T16:27:52.225Z,83.60
2022-11-09T16:30:46.360Z,83.50
2022-11-09T16:33:37.280Z,83.70
2022-11-09T16:36:31.662Z,83.80
2022-11-09T16:39:17.550Z,83.80
2022-11-09T16:42:24.357Z,83.80
2022-11-09T16:45:33.143Z,84.00
2022-11-09T16:51:53.407Z,85.00
2022-11-09T17:06:06.328Z,88.30
2022-11-09T17:09:03.480Z,88.80
2022-11-09T17:11:49.513Z,89.10
2022-11-09T17:14:35.197Z,89.40
2022-11-09T17:17:22.865Z,89.70
2022-11-09T17:20:12.674Z,89.80
2022-11-09T17:22:58.599Z,90.00
2022-11-09T17:26:07.304Z,90.10
2022-11-09T17:28:55.104Z,90.10
2022-11-09T17:32:00.516Z,90.50
2022-11-09T17:34:46.234Z,90.60
2022-11-09T17:37:33.846Z,90.80
2022-11-09T17:40:21.379Z,90.90
2022-11-09T17:43:06.983Z,90.90
2022-11-09T17:45:52.444Z,91.20
2022-11-09T17:48:39.756Z,91.20
2022-11-09T17:51:25.490Z,91.20
2022-11-09T17:54:11.405Z,91.30
2022-11-09T17:56:58.297Z,91.40
2022-11-09T17:59:43.989Z,91.40
2022-11-09T18:02:29.603Z,91.30
2022-11-09T18:05:16.399Z,91.30
2022-11-09T18:08:01.902Z,91.20
2022-11-09T18:10:50.486Z,91.20
2022-11-09T18:13:36.531Z,91.20
2022-11-09T18:16:26.513Z,91.20
2022-11-09T18:24:25.231Z,91.20
2022-11-09T18:27:10.680Z,91.30
2022-11-09T18:30:06.758Z,91.30
2022-11-09T18:32:55.615Z,91.30
2022-11-09T18:35:41.263Z,91.40
2022-11-09T18:38:29.513Z,91.40
2022-11-09T18:41:27.306Z,91.40
2022-11-09T18:44:13.183Z,91.30
2022-11-09T18:47:09.745Z,91.40
2022-11-09T18:49:59.672Z,91.30
2022-11-09T18:52:45.881Z,91.30
2022-11-09T18:55:34.598Z,91.30
2022-11-09T18:58:23.780Z,91.30
2022-11-09T19:01:13.003Z,91.30
2022-11-09T19:04:00.738Z,91.40
2022-11-09T19:06:47.026Z,91.40
2022-11-09T19:09:38.603Z,91.40
2022-11-09T19:12:25.102Z,91.40
2022-11-09T19:15:10.925Z,91.70
2022-11-09T19:17:58.759Z,91.30
2022-11-09T19:20:44.646Z,91.30
2022-11-09T19:23:34.447Z,91.30
2022-11-09T19:26:22.202Z,91.20
2022-11-09T19:29:08.806Z,91.10
2022-11-09T19:31:55.142Z,91.10
2022-11-09T19:34:43.653Z,91.10
2022-11-09T19:37:29.436Z,91.00
2022-11-09T19:40:15.083Z,91.00
2022-11-09T19:43:00.786Z,91.10
2022-11-09T19:45:46.287Z,91.10
2022-11-09T19:48:33.392Z,91.10
2022-11-09T19:51:19.626Z,91.20
2022-11-09T19:54:06.402Z,91.20
2022-11-09T19:56:54.152Z,91.30
2022-11-09T19:59:39.640Z,91.40
2022-11-09T20:02:27.256Z,91.40
2022-11-09T20:05:14.244Z,91.50
2022-11-09T20:08:06.009Z,91.50
2022-11-09T20:10:52.476Z,91.50
2022-11-09T20:13:39.641Z,91.50
2022-11-09T20:16:45.503Z,91.60
2022-11-09T20:19:33.747Z,91.60
2022-11-09T20:22:19.300Z,91.70
2022-11-09T20:25:14.522Z,91.70
2022-11-09T20:27:59.888Z,91.70
2022-11-09T20:38:12.439Z,92.50
2022-11-09T20:41:07.170Z,92.60
2022-11-09T20:48:02.078Z,92.80
2022-11-09T20:50:41.333Z,92.90
2022-11-09T20:53:26.766Z,93.00
2022-11-09T20:56:13.372Z,93.00
2022-11-09T20:58:58.949Z,93.10
2022-11-09T21:01:45.861Z,93.10
2022-11-09T21:04:37.441Z,93.20
2022-11-09T21:07:24.211Z,93.20
2022-11-09T21:10:09.802Z,93.20
2022-11-09T21:12:58.129Z,93.20
2022-11-09T21:16:43.056Z,93.40
2022-11-09T21:19:09.847Z,93.30
2022-11-09T21:21:57.603Z,93.40
2022-11-09T21:25:12.268Z,93.40
2022-11-09T21:28:18.895Z,93.40
2022-11-09T21:31:04.792Z,93.50
2022-11-09T21:34:01.731Z,93.50
2022-11-09T21:36:47.453Z,93.50
2022-11-09T21:39:39.987Z,93.60
2022-11-09T21:42:29.165Z,93.60
2022-11-09T21:45:14.774Z,93.60
2022-11-09T21:48:50.054Z,93.60
2022-11-09T21:52:08.837Z,93.70
2022-11-09T21:54:59.184Z,93.70
2022-11-09T21:57:44.780Z,93.70
2022-11-09T22:00:34.004Z,93.70
2022-11-09T22:03:20.455Z,93.70
2022-11-09T22:06:06.550Z,93.80
2022-11-09T22:08:54.658Z,93.70
2022-11-09T22:12:08.353Z,93.70
2022-11-09T22:15:26.622Z,93.80
2022-11-09T22:18:36.644Z,93.80
2022-11-09T22:21:23.976Z,93.80
2022-11-09T22:24:14.798Z,93.80
2022-11-09T22:27:00.839Z,93.80
2022-11-09T22:29:48.993Z,93.80
2022-11-09T22:32:35.053Z,93.80
2022-11-09T22:35:23.394Z,93.70
2022-11-09T22:38:09.466Z,93.70
2022-11-09T22:41:01.466Z,93.80
2022-11-09T22:43:47.083Z,93.90
2022-11-09T22:46:35.354Z,93.80
2022-11-09T22:49:42.353Z,93.80
2022-11-09T22:52:28.155Z,93.80
2022-11-09T22:55:14.474Z,93.90
2022-11-09T22:58:00.109Z,93.90
2022-11-09T23:00:45.677Z,93.90
2022-11-09T23:03:34.940Z,94.00
2022-11-09T23:06:23.356Z,94.00
2022-11-09T23:09:08.910Z,94.10
2022-11-09T23:11:54.285Z,94.10
2022-11-09T23:14:58.120Z,94.10
2022-11-09T23:18:02.464Z,94.10
2022-11-09T23:20:48.177Z,94.10
2022-11-09T23:23:33.556Z,94.20
2022-11-09T23:26:19.730Z,94.20
2022-11-09T23:29:05.228Z,94.20
2022-11-09T23:31:51.184Z,94.20
2022-11-09T23:34:36.629Z,94.20
2022-11-09T23:37:24.954Z,94.20
2022-11-09T23:40:12.657Z,94.20
2022-11-09T23:43:09.136Z,94.30
2022-11-09T23:45:54.658Z,94.30
2022-11-09T23:48:41.458Z,94.30
2022-11-09T23:51:27.187Z,94.30
2022-11-09T23:54:12.437Z,94.30
2022-11-09T23:57:00.837Z,94.30
2022-11-09T23:59:46.170Z,94.40
